| time (UTC) | temp F | wind direction | speed knots | gust knots | rain 1hr in | rain 24hr in | rain mn in | humidity % | barometer mb |
| 20260906004028 | 74 | 100 | 0.0 | 0.0 | 0.00 | 0.66 | 0.66 | 95 | 1010.2 |
| 20260906003527 | 74 | 100 | 0.0 | 0.0 | 0.00 | 0.66 | 0.66 | 95 | 1009.8 |
| 20260906003025 | 74 | 100 | 0.0 | 0.0 | 0.00 | 0.66 | 0.66 | 95 | 1010.2 |
| 20260906002453 | 74 | 100 | 0.0 | 0.0 | 0.00 | 0.66 | 0.66 | 95 | 1010.2 |
| 20260906001952 | 74 | 100 | 0.0 | 0.0 | 0.00 | 0.66 | 0.66 | 95 | 1010.2 |
| 20260906001451 | 74 | 101 | 0.0 | 0.0 | 0.00 | 0.66 | 0.66 | 95 | 1010.2 |
| 20260906000950 | 74 | 98 | 0.0 | 0.0 | 0.00 | 0.66 | 0.66 | 95 | 1010.2 |
| 20260906000448 | 75 | 99 | 0.0 | 0.0 | 0.00 | 0.66 | 0.66 | 95 | 1010.2 |
| 20260905235946 | 75 | 99 | 0.0 | 0.0 | 0.00 | 0.66 | 0.66 | 95 | 1010.2 |
| 20260905235445 | 75 | 98 | 0.0 | 0.9 | 0.00 | 0.66 | 0.66 | 95 | 1010.2 |
| 20260905234944 | 76 | 99 | 0.0 | 0.9 | 0.00 | 0.66 | 0.66 | 95 | 1010.2 |
| 20260905234443 | 76 | 98 | 0.0 | 0.9 | 0.00 | 0.66 | 0.66 | 95 | 1010.2 |
| 20260905233942 | 76 | 219 | 0.0 | 0.9 | 0.00 | 0.66 | 0.66 | 95 | 1010.2 |
| 20260905233441 | 76 | 215 | 0.0 | 0.0 | 0.00 | 0.66 | 0.66 | 95 | 1010.2 |
| 20260905232940 | 76 | 215 | 0.0 | 0.0 | 0.00 | 0.66 | 0.66 | 95 | 1009.8 |
| 20260905232439 | 76 | 215 | 0.0 | 0.0 | 0.00 | 0.66 | 0.66 | 95 | 1009.8 |
| 20260905231938 | 76 | 215 | 0.0 | 0.9 | 0.00 | 0.66 | 0.66 | 95 | 1009.8 |
| 20260905231406 | 76 | 216 | 0.0 | 0.9 | 0.00 | 0.66 | 0.66 | 95 | 1009.8 |
| 20260905230905 | 76 | 215 | 0.0 | 0.9 | 0.00 | 0.66 | 0.66 | 95 | 1009.8 |
| 20260905230403 | 76 | 215 | 0.0 | 0.9 | 0.00 | 0.66 | 0.66 | 95 | 1009.8 |
| 20260905225902 | 76 | 224 | 0.9 | 0.9 | 0.00 | 0.66 | 0.66 | 95 | 1009.8 |
| 20260905225330 | 76 | 82 | 0.0 | 0.0 | 0.00 | 0.66 | 0.66 | 95 | 1009.8 |
| 20260905224829 | 77 | 82 | 0.0 | 0.0 | 0.00 | 0.66 | 0.66 | 95 | 1009.5 |
| 20260905224329 | 77 | 82 | 0.0 | 0.0 | 0.00 | 0.66 | 0.66 | 95 | 1009.8 |
| 20260905223826 | 77 | 82 | 0.0 | 0.0 | 0.00 | 0.66 | 0.66 | 95 | 1009.8 |
| 20260905223254 | 76 | 82 | 0.0 | 0.9 | 0.00 | 0.66 | 0.66 | 95 | 1009.8 |
| 20260905222752 | 76 | 82 | 0.0 | 0.9 | 0.00 | 0.66 | 0.66 | 95 | 1009.8 |
| 20260905222249 | 76 | 82 | 0.0 | 0.9 | 0.00 | 0.66 | 0.66 | 95 | 1009.8 |
| 20260905221748 | 76 | 82 | 0.0 | 0.0 | 0.00 | 0.66 | 0.66 | 95 | 1009.8 |
| 20260905221216 | 76 | 77 | 0.0 | 0.0 | 0.00 | 0.66 | 0.66 | 95 | 1009.8 |
| 20260905220715 | 76 | 77 | 0.0 | 0.0 | 0.00 | 0.66 | 0.66 | 95 | 1009.8 |
| 20260905220214 | 76 | 76 | 0.0 | 0.0 | 0.00 | 0.66 | 0.66 | 95 | 1009.8 |
| 20260905215712 | 76 | 77 | 0.0 | 0.0 | 0.00 | 0.66 | 0.66 | 95 | 1009.8 |
| 20260905215108 | 76 | 76 | 0.0 | 0.0 | 0.00 | 0.66 | 0.66 | 95 | 1009.8 |
| 20260905214606 | 76 | 77 | 0.0 | 0.0 | 0.00 | 0.66 | 0.66 | 95 | 1009.8 |
| 20260905214104 | 76 | 76 | 0.0 | 0.0 | 0.00 | 0.66 | 0.66 | 95 | 1010.2 |
| 20260905213603 | 76 | 77 | 0.0 | 0.0 | 0.00 | 0.66 | 0.66 | 95 | 1010.2 |
| 20260905213102 | 76 | 76 | 0.0 | 0.0 | 0.00 | 0.66 | 0.66 | 95 | 1009.8 |
| 20260905212530 | 75 | 77 | 0.0 | 0.9 | 0.00 | 0.66 | 0.66 | 95 | 1009.8 |
| 20260905212029 | 74 | 77 | 0.0 | 0.9 | 0.00 | 0.66 | 0.66 | 95 | 1010.2 |
| 20260905211528 | 73 | 77 | 0.0 | 0.9 | 0.00 | 0.66 | 0.66 | 95 | 1009.8 |
| 20260905211028 | 73 | 77 | 0.9 | 0.9 | 0.00 | 0.66 | 0.66 | 95 | 1010.2 |
| 20260905210526 | 73 | 68 | 0.0 | 0.0 | 0.00 | 0.66 | 0.66 | 95 | 1010.2 |
| 20260905210026 | 73 | 68 | 0.0 | 0.0 | 0.00 | 0.66 | 0.66 | 95 | 1010.5 |
| 20260905205525 | 73 | 68 | 0.0 | 0.9 | 0.00 | 0.66 | 0.66 | 95 | 1010.8 |
| 20260905205024 | 73 | 68 | 0.0 | 0.9 | 0.00 | 0.66 | 0.66 | 95 | 1010.8 |
| 20260905204523 | 73 | 68 | 0.0 | 0.9 | 0.00 | 0.66 | 0.66 | 95 | 1010.8 |
| 20260905204021 | 73 | 68 | 0.9 | 0.9 | 0.00 | 0.66 | 0.66 | 95 | 1010.5 |
| 20260905203449 | 73 | 65 | 0.0 | 0.9 | 0.00 | 0.66 | 0.66 | 95 | 1010.8 |
| 20260905202916 | 73 | 65 | 0.0 | 0.9 | 0.00 | 0.66 | 0.66 | 95 | 1010.8 |
| 20260905202415 | 73 | 62 | 0.0 | 0.9 | 0.00 | 0.66 | 0.66 | 95 | 1011.2 |
| 20260905201913 | 73 | 62 | 0.0 | 0.9 | 0.00 | 0.66 | 0.66 | 95 | 1011.2 |
| 20260905201413 | 73 | 63 | 0.0 | 0.9 | 0.00 | 0.66 | 0.66 | 95 | 1011.2 |
| 20260905200910 | 73 | 63 | 0.0 | 0.9 | 0.00 | 0.66 | 0.66 | 95 | 1011.2 |
| 20260905200408 | 73 | 78 | 0.0 | 0.0 | 0.00 | 0.66 | 0.66 | 95 | 1011.5 |
| 20260905195805 | 73 | 79 | 0.0 | 0.0 | 0.01 | 0.66 | 0.66 | 95 | 1011.2 |
| 20260905195306 | 73 | 56 | 0.0 | 0.0 | 0.03 | 0.66 | 0.66 | 95 | 1011.2 |
| 20260905194803 | 73 | 57 | 0.0 | 0.0 | 0.09 | 0.66 | 0.66 | 95 | 1011.2 |
| 20260905194301 | 73 | 57 | 0.0 | 0.0 | 0.18 | 0.66 | 0.66 | 95 | 1011.2 |
| 20260905193801 | 73 | 57 | 0.0 | 0.9 | 0.32 | 0.66 | 0.66 | 95 | 1010.8 |
| 20260905193227 | 73 | 250 | 0.0 | 0.9 | 0.42 | 0.66 | 0.66 | 95 | 1010.8 |
| 20260905192726 | 73 | 226 | 0.0 | 0.9 | 0.56 | 0.66 | 0.66 | 95 | 1011.2 |
| 20260905192225 | 72 | 68 | 0.0 | 0.9 | 0.66 | 0.66 | 0.66 | 95 | 1011.2 |
| 20260905191724 | 72 | 250 | 0.0 | 0.0 | 0.66 | 0.66 | 0.66 | 95 | 1011.2 |
| 20260905191222 | 72 | 250 | 0.0 | 0.9 | 0.66 | 0.66 | 0.66 | 95 | 1011.2 |
| 20260905190721 | 72 | 226 | 0.0 | 1.7 | 0.66 | 0.66 | 0.66 | 95 | 1011.2 |
| 20260905190219 | 72 | 225 | 0.0 | 1.7 | 0.66 | 0.66 | 0.66 | 95 | 1011.5 |
| 20260905185718 | 72 | 215 | 0.0 | 2.6 | 0.65 | 0.65 | 0.65 | 94 | 1011.9 |
| 20260905185146 | 73 | 228 | 0.9 | 2.6 | 0.61 | 0.61 | 0.61 | 93 | 1012.2 |
| 20260905184645 | 74 | 84 | 0.9 | 3.5 | 0.55 | 0.55 | 0.55 | 91 | 1012.5 |
| 20260905184144 | 75 | 198 | 0.9 | 8.7 | 0.44 | 0.44 | 0.44 | 89 | 1013.5 |
| 20260905183643 | 77 | 73 | 1.7 | 8.7 | 0.32 | 0.32 | 0.32 | 86 | 1013.5 |
| 20260905183142 | 80 | 187 | 1.7 | 9.6 | 0.20 | 0.20 | 0.20 | 82 | 1013.2 |
| 20260905182609 | 84 | 12 | 2.6 | 9.6 | 0.08 | 0.08 | 0.08 | 78 | 1013.2 |
| 20260905182108 | 86 | 326 | 0.9 | 8.7 | 0.00 | 0.00 | 0.00 | 75 | 1012.9 |
| 20260905181607 | 88 | 51 | 5.2 | 7.8 | 0.00 | 0.00 | 0.00 | 77 | 1011.9 |
| 20260905181106 | 89 | 245 | 0.0 | 0.0 | 0.00 | 0.00 | 0.00 | 74 | 1011.2 |
| 20260905180502 | 90 | 245 | 0.0 | 0.0 | 0.00 | 0.00 | 0.00 | 74 | 1010.8 |
| 20260905180001 | 90 | 245 | 0.0 | 0.0 | 0.00 | 0.00 | 0.00 | 72 | 1010.8 |
| 20260905175459 | 91 | 245 | 0.0 | 0.0 | 0.00 | 0.00 | 0.00 | 71 | 1011.2 |
| 20260905174958 | 91 | 245 | 0.0 | 0.0 | 0.00 | 0.00 | 0.00 | 70 | 1010.5 |
| 20260905174354 | 92 | 245 | 0.0 | 0.0 | 0.00 | 0.00 | 0.00 | 68 | 1010.8 |
| 20260905173853 | 93 | 207 | 0.0 | 0.0 | 0.00 | 0.00 | 0.00 | 67 | 1010.8 |
| 20260905173353 | 93 | 233 | 0.0 | 0.0 | 0.00 | 0.00 | 0.00 | 65 | 1011.2 |
| 20260905172851 | 93 | 200 | 0.0 | 0.0 | 0.00 | 0.00 | 0.00 | 65 | 1011.2 |
| 20260905172350 | 92 | 200 | 0.0 | 0.0 | 0.00 | 0.00 | 0.00 | 65 | 1011.2 |
| 20260905171817 | 92 | 167 | 0.0 | 0.0 | 0.00 | 0.00 | 0.00 | 67 | 1011.2 |
| 20260905171316 | 92 | 186 | 0.0 | 0.0 | 0.00 | 0.00 | 0.00 | 68 | 1011.2 |
| 20260905170815 | 92 | 223 | 0.0 | 0.0 | 0.00 | 0.00 | 0.00 | 70 | 1011.5 |
| 20260905170314 | 91 | 250 | 0.0 | 0.0 | 0.00 | 0.00 | 0.00 | 70 | 1011.5 |
| 20260905165812 | 90 | 253 | 0.0 | 0.0 | 0.00 | 0.00 | 0.00 | 71 | 1011.9 |
| 20260905165311 | 90 | 211 | 0.0 | 0.0 | 0.00 | 0.00 | 0.00 | 70 | 1011.9 |
| 20260905164810 | 90 | 162 | 0.0 | 0.0 | 0.00 | 0.00 | 0.00 | 69 | 1011.9 |
| 20260905164307 | 89 | 149 | 0.0 | 0.0 | 0.00 | 0.00 | 0.00 | 69 | 1011.9 |
| 20260905163806 | 89 | 63 | 0.0 | 0.0 | 0.00 | 0.00 | 0.00 | 73 | 1012.2 |
| 20260905163305 | 89 | 73 | 0.0 | 0.0 | 0.00 | 0.00 | 0.00 | 72 | 1012.2 |
| 20260905162801 | 89 | 221 | 0.0 | 0.0 | 0.00 | 0.00 | 0.00 | 74 | 1012.2 |
| 20260905162258 | 89 | 214 | 0.0 | 0.0 | 0.00 | 0.00 | 0.00 | 73 | 1012.2 |
| 20260905161725 | 89 | 214 | 0.0 | 0.0 | 0.00 | 0.00 | 0.00 | 72 | 1012.2 |
| 20260905161224 | 89 | 218 | 0.0 | 0.0 | 0.00 | 0.00 | 0.00 | 73 | 1012.2 |
| 20260905160723 | 89 | 229 | 0.0 | 0.0 | 0.00 | 0.00 | 0.00 | 73 | 1012.2 |
| 20260905160222 | 90 | 219 | 0.0 | 0.0 | 0.00 | 0.00 | 0.00 | 74 | 1012.2 |
| 20260905155721 | 89 | 219 | 0.0 | 0.0 | 0.00 | 0.00 | 0.00 | 78 | 1012.2 |
| 20260905155220 | 88 | 226 | 0.0 | 0.0 | 0.00 | 0.00 | 0.00 | 76 | 1012.2 |
| 20260905154718 | 87 | 235 | 0.0 | 0.0 | 0.00 | 0.00 | 0.00 | 79 | 1012.2 |
| 20260905154217 | 86 | 145 | 0.0 | 0.0 | 0.00 | 0.00 | 0.00 | 81 | 1012.2 |
| 20260905153716 | 85 | 107 | 0.0 | 0.0 | 0.00 | 0.00 | 0.00 | 82 | 1012.2 |
| 20260905153215 | 85 | 107 | 0.0 | 0.0 | 0.00 | 0.00 | 0.00 | 80 | 1012.2 |
| 20260905152714 | 84 | 71 | 0.0 | 0.0 | 0.00 | 0.00 | 0.00 | 81 | 1012.5 |
| 20260905152111 | 83 | 70 | 0.0 | 0.0 | 0.00 | 0.00 | 0.00 | 85 | 1012.5 |
| 20260905151610 | 83 | 114 | 0.0 | 0.0 | 0.00 | 0.00 | 0.00 | 84 | 1012.5 |
| 20260905151108 | 83 | 117 | 0.0 | 0.0 | 0.00 | 0.00 | 0.00 | 84 | 1012.5 |
| 20260905150502 | 83 | 135 | 0.0 | 0.0 | 0.00 | 0.00 | 0.00 | 86 | 1012.5 |
| 20260905150001 | 83 | 136 | 0.0 | 0.0 | 0.00 | 0.00 | 0.00 | 86 | 1012.5 |
| 20260905145429 | 82 | 136 | 0.0 | 0.0 | 0.00 | 0.00 | 0.00 | 85 | 1012.5 |
| 20260905144856 | 82 | 137 | 0.0 | 0.0 | 0.00 | 0.00 | 0.00 | 85 | 1012.5 |
| 20260905144251 | 82 | 136 | 0.0 | 0.0 | 0.00 | 0.00 | 0.00 | 86 | 1012.5 |
| 20260905143750 | 82 | 136 | 0.0 | 0.0 | 0.00 | 0.00 | 0.00 | 87 | 1012.5 |
| 20260905143248 | 81 | 136 | 0.0 | 0.0 | 0.00 | 0.00 | 0.00 | 86 | 1012.9 |
| 20260905142747 | 81 | 136 | 0.0 | 0.0 | 0.00 | 0.00 | 0.00 | 87 | 1012.9 |
| 20260905142144 | 81 | 88 | 0.0 | 0.0 | 0.00 | 0.00 | 0.00 | 88 | 1012.9 |
| 20260905141643 | 80 | 76 | 0.0 | 0.0 | 0.00 | 0.00 | 0.00 | 88 | 1012.9 |
| 20260905141111 | 80 | 87 | 0.0 | 0.0 | 0.00 | 0.00 | 0.00 | 90 | 1012.5 |
| 20260905140609 | 79 | 84 | 0.0 | 0.0 | 0.00 | 0.00 | 0.00 | 92 | 1012.9 |
| 20260905140108 | 79 | 118 | 0.0 | 0.0 | 0.00 | 0.00 | 0.00 | 95 | 1012.9 |
| 20260905135607 | 78 | 118 | 0.0 | 0.0 | 0.00 | 0.00 | 0.00 | 95 | 1012.9 |
| 20260905135003 | 78 | 120 | 0.0 | 0.0 | 0.00 | 0.00 | 0.00 | 95 | 1012.9 |
| 20260905134431 | 78 | 123 | 0.0 | 0.0 | 0.00 | 0.00 | 0.00 | 95 | 1012.9 |
| 20260905133930 | 77 | 127 | 0.0 | 0.0 | 0.00 | 0.00 | 0.00 | 95 | 1012.9 |
| 20260905133429 | 77 | 127 | 0.0 | 0.0 | 0.00 | 0.00 | 0.00 | 95 | 1012.9 |
| 20260905132927 | 77 | 128 | 0.0 | 0.0 | 0.00 | 0.00 | 0.00 | 95 | 1012.9 |
| 20260905132426 | 77 | 128 | 0.0 | 0.0 | 0.00 | 0.00 | 0.00 | 95 | 1012.9 |
| 20260905131925 | 77 | 128 | 0.0 | 0.0 | 0.00 | 0.00 | 0.00 | 95 | 1012.9 |
| 20260905131424 | 77 | 128 | 0.0 | 0.0 | 0.00 | 0.00 | 0.00 | 95 | 1013.2 |
| 20260905130924 | 76 | 128 | 0.0 | 0.0 | 0.00 | 0.00 | 0.00 | 95 | 1013.2 |
| 20260905130421 | 76 | 129 | 0.0 | 0.0 | 0.00 | 0.00 | 0.00 | 95 | 1012.9 |
| 20260905125847 | 76 | 129 | 0.0 | 0.0 | 0.00 | 0.00 | 0.00 | 95 | 1012.9 |
| 20260905125347 | 76 | 129 | 0.0 | 0.0 | 0.00 | 0.00 | 0.00 | 95 | 1013.2 |
| 20260905124846 | 76 | 58 | 0.0 | 0.0 | 0.00 | 0.00 | 0.00 | 95 | 1013.2 |
| 20260905124344 | 76 | 58 | 0.0 | 0.0 | 0.00 | 0.00 | 0.00 | 95 | 1013.2 |
| 20260905123843 | 76 | 58 | 0.0 | 0.0 | 0.00 | 0.00 | 0.00 | 95 | 1013.2 |
| 20260905123342 | 75 | 58 | 0.0 | 0.0 | 0.00 | 0.00 | 0.00 | 95 | 1013.2 |
| 20260905122841 | 75 | 58 | 0.0 | 0.0 | 0.00 | 0.00 | 0.00 | 95 | 1013.2 |
| 20260905122339 | 75 | 58 | 0.0 | 0.0 | 0.00 | 0.00 | 0.00 | 95 | 1013.2 |
| 20260905121838 | 74 | 58 | 0.0 | 0.0 | 0.00 | 0.00 | 0.00 | 95 | 1012.9 |
| 20260905121306 | 74 | 58 | 0.0 | 0.0 | 0.00 | 0.00 | 0.00 | 95 | 1012.9 |
| 20260905120805 | 74 | 58 | 0.0 | 0.0 | 0.00 | 0.00 | 0.00 | 95 | 1012.9 |
| 20260905120233 | 73 | 58 | 0.0 | 0.0 | 0.00 | 0.00 | 0.00 | 95 | 1012.9 |
| 20260905115732 | 73 | 58 | 0.0 | 0.0 | 0.00 | 0.00 | 0.00 | 95 | 1012.9 |
| 20260905115230 | 73 | 58 | 0.0 | 0.0 | 0.00 | 0.00 | 0.00 | 95 | 1012.9 |
| 20260905114729 | 73 | 58 | 0.0 | 0.0 | 0.00 | 0.00 | 0.00 | 95 | 1012.5 |
| 20260905114228 | 73 | 58 | 0.0 | 0.0 | 0.00 | 0.00 | 0.00 | 95 | 1012.5 |
| 20260905113727 | 73 | 58 | 0.0 | 0.0 | 0.00 | 0.00 | 0.00 | 95 | 1012.5 |
| 20260905113226 | 73 | 58 | 0.0 | 0.0 | 0.00 | 0.00 | 0.00 | 95 | 1012.5 |
| 20260905112725 | 73 | 58 | 0.0 | 0.0 | 0.00 | 0.00 | 0.00 | 95 | 1012.5 |
| 20260905112224 | 73 | 58 | 0.0 | 0.0 | 0.00 | 0.00 | 0.00 | 95 | 1012.2 |
| 20260905111723 | 73 | 58 | 0.0 | 0.0 | 0.00 | 0.00 | 0.00 | 95 | 1012.2 |
| 20260905111222 | 73 | 58 | 0.0 | 0.0 | 0.00 | 0.00 | 0.00 | 95 | 1012.2 |
| 20260905110720 | 73 | 58 | 0.0 | 0.0 | 0.00 | 0.00 | 0.00 | 95 | 1012.2 |
| 20260905110219 | 73 | 58 | 0.0 | 0.0 | 0.00 | 0.00 | 0.00 | 95 | 1012.2 |
| 20260905105645 | 73 | 58 | 0.0 | 0.0 | 0.00 | 0.00 | 0.00 | 95 | 1012.2 |
| 20260905105144 | 73 | 58 | 0.0 | 0.0 | 0.00 | 0.00 | 0.00 | 95 | 1012.2 |
| 20260905104643 | 73 | 58 | 0.0 | 0.0 | 0.00 | 0.00 | 0.00 | 95 | 1011.9 |
| 20260905104142 | 73 | 58 | 0.0 | 0.0 | 0.00 | 0.00 | 0.00 | 95 | 1012.2 |
| 20260905103640 | 73 | 58 | 0.0 | 0.0 | 0.00 | 0.00 | 0.00 | 95 | 1011.9 |
| 20260905103139 | 73 | 58 | 0.0 | 0.0 | 0.00 | 0.00 | 0.00 | 95 | 1011.9 |
| 20260905102638 | 73 | 58 | 0.0 | 0.0 | 0.00 | 0.00 | 0.00 | 95 | 1011.9 |
| 20260905102034 | 73 | 58 | 0.0 | 0.0 | 0.00 | 0.00 | 0.00 | 95 | 1011.9 |
| 20260905101501 | 73 | 58 | 0.0 | 0.0 | 0.00 | 0.00 | 0.00 | 95 | 1011.9 |
| 20260905100958 | 73 | 58 | 0.0 | 0.0 | 0.00 | 0.00 | 0.00 | 95 | 1011.9 |
| 20260905100458 | 73 | 58 | 0.0 | 0.0 | 0.00 | 0.00 | 0.00 | 95 | 1011.9 |
| 20260905095957 | 73 | 58 | 0.0 | 0.0 | 0.00 | 0.00 | 0.00 | 95 | 1011.5 |
| 20260905095456 | 73 | 58 | 0.0 | 0.0 | 0.00 | 0.00 | 0.00 | 95 | 1011.5 |
| 20260905094955 | 73 | 58 | 0.0 | 0.0 | 0.00 | 0.00 | 0.00 | 95 | 1011.5 |
| 20260905094454 | 73 | 58 | 0.0 | 0.0 | 0.00 | 0.00 | 0.00 | 95 | 1011.5 |
| 20260905093951 | 73 | 58 | 0.0 | 0.0 | 0.00 | 0.00 | 0.00 | 95 | 1011.2 |
| 20260905093450 | 73 | 58 | 0.0 | 0.0 | 0.00 | 0.00 | 0.00 | 95 | 1011.2 |
| 20260905092949 | 73 | 58 | 0.0 | 0.0 | 0.00 | 0.00 | 0.00 | 95 | 1011.5 |
| 20260905092417 | 73 | 58 | 0.0 | 0.0 | 0.00 | 0.00 | 0.00 | 95 | 1011.5 |
| 20260905091915 | 73 | 58 | 0.0 | 0.0 | 0.00 | 0.00 | 0.00 | 95 | 1011.5 |
| 20260905091414 | 73 | 58 | 0.0 | 0.0 | 0.00 | 0.00 | 0.00 | 95 | 1011.5 |
| 20260905090842 | 73 | 58 | 0.0 | 0.0 | 0.00 | 0.00 | 0.00 | 95 | 1011.5 |
| 20260905090341 | 73 | 58 | 0.0 | 0.0 | 0.00 | 0.00 | 0.00 | 95 | 1011.5 |
| 20260905085840 | 74 | 58 | 0.0 | 0.0 | 0.00 | 0.00 | 0.00 | 95 | 1011.5 |
| 20260905085306 | 74 | 58 | 0.0 | 0.0 | 0.00 | 0.00 | 0.00 | 95 | 1011.5 |
| 20260905084805 | 74 | 58 | 0.0 | 0.0 | 0.00 | 0.00 | 0.00 | 95 | 1011.5 |
| 20260905084304 | 74 | 58 | 0.0 | 0.0 | 0.00 | 0.00 | 0.00 | 95 | 1011.5 |
| 20260905083803 | 74 | 58 | 0.0 | 0.0 | 0.00 | 0.00 | 0.00 | 95 | 1011.5 |
| 20260905083302 | 74 | 58 | 0.0 | 0.0 | 0.00 | 0.00 | 0.00 | 95 | 1011.5 |
| 20260905082801 | 74 | 58 | 0.0 | 0.0 | 0.00 | 0.00 | 0.00 | 95 | 1011.5 |
| 20260905082300 | 74 | 58 | 0.0 | 0.0 | 0.00 | 0.00 | 0.00 | 95 | 1011.5 |
| 20260905081759 | 74 | 58 | 0.0 | 0.0 | 0.00 | 0.00 | 0.00 | 95 | 1011.5 |
| 20260905081153 | 74 | 58 | 0.0 | 0.0 | 0.00 | 0.00 | 0.00 | 95 | 1011.5 |
| 20260905080651 | 74 | 58 | 0.0 | 0.0 | 0.00 | 0.00 | 0.00 | 95 | 1011.5 |
| 20260905080150 | 74 | 58 | 0.0 | 0.0 | 0.00 | 0.00 | 0.00 | 95 | 1011.5 |
| 20260905075649 | 74 | 58 | 0.0 | 0.0 | 0.00 | 0.00 | 0.00 | 95 | 1011.5 |
| 20260905075116 | 74 | 58 | 0.0 | 0.0 | 0.00 | 0.00 | 0.00 | 95 | 1011.9 |
| 20260905074615 | 74 | 58 | 0.0 | 0.0 | 0.00 | 0.00 | 0.00 | 95 | 1011.9 |
| 20260905074114 | 74 | 58 | 0.0 | 0.0 | 0.00 | 0.00 | 0.00 | 95 | 1011.9 |
| 20260905073542 | 74 | 58 | 0.0 | 0.0 | 0.00 | 0.00 | 0.00 | 95 | 1011.9 |
| 20260905073041 | 74 | 58 | 0.0 | 0.0 | 0.00 | 0.00 | 0.00 | 95 | 1011.9 |
| 20260905072538 | 74 | 58 | 0.0 | 0.0 | 0.00 | 0.00 | 0.00 | 95 | 1011.9 |
| 20260905072036 | 74 | 58 | 0.0 | 0.0 | 0.00 | 0.00 | 0.00 | 95 | 1011.9 |
| 20260905071535 | 74 | 58 | 0.0 | 0.0 | 0.00 | 0.00 | 0.00 | 95 | 1011.9 |
| 20260905071034 | 74 | 58 | 0.0 | 0.0 | 0.00 | 0.00 | 0.00 | 95 | 1011.9 |
| 20260905070533 | 74 | 58 | 0.0 | 0.0 | 0.00 | 0.00 | 0.00 | 95 | 1011.9 |
| 20260905070032 | 74 | 58 | 0.0 | 0.0 | 0.00 | 0.00 | 0.00 | 95 | 1011.9 |
| 20260905065530 | 75 | 58 | 0.0 | 0.0 | 0.00 | 0.00 | 0.00 | 95 | 1011.9 |
| 20260905064959 | 75 | 58 | 0.0 | 0.0 | 0.00 | 0.00 | 0.00 | 95 | 1011.9 |
| 20260905064457 | 75 | 58 | 0.0 | 0.0 | 0.00 | 0.00 | 0.00 | 95 | 1011.9 |
| 20260905063957 | 75 | 58 | 0.0 | 0.0 | 0.00 | 0.00 | 0.00 | 95 | 1011.9 |
| 20260905063456 | 75 | 58 | 0.0 | 0.0 | 0.00 | 0.00 | 0.00 | 95 | 1011.9 |
| 20260905062954 | 75 | 58 | 0.0 | 0.0 | 0.00 | 0.00 | 0.00 | 95 | 1011.9 |
| 20260905062453 | 75 | 58 | 0.0 | 0.0 | 0.00 | 0.00 | 0.00 | 95 | 1011.9 |
| 20260905061952 | 75 | 58 | 0.0 | 0.0 | 0.00 | 0.00 | 0.00 | 95 | 1011.9 |
| 20260905061450 | 75 | 58 | 0.0 | 0.0 | 0.00 | 0.00 | 0.00 | 95 | 1011.9 |
| 20260905060949 | 75 | 58 | 0.0 | 0.0 | 0.00 | 0.00 | 0.00 | 95 | 1011.9 |
| 20260905060447 | 75 | 58 | 0.0 | 0.0 | 0.00 | 0.00 | 0.00 | 95 | 1011.9 |
| 20260905055946 | 75 | 58 | 0.0 | 0.0 | 0.00 | 0.00 | 0.00 | 95 | 1011.9 |
| 20260905055445 | 75 | 58 | 0.0 | 0.0 | 0.00 | 0.00 | 0.00 | 95 | 1012.2 |
| 20260905054944 | 75 | 58 | 0.0 | 0.0 | 0.00 | 0.00 | 0.00 | 95 | 1012.2 |
| 20260905054443 | 75 | 58 | 0.0 | 0.0 | 0.00 | 0.00 | 0.00 | 95 | 1012.2 |
| 20260905053911 | 75 | 58 | 0.0 | 0.0 | 0.00 | 0.00 | 0.00 | 95 | 1012.2 |
| 20260905053410 | 75 | 58 | 0.0 | 0.0 | 0.00 | 0.00 | 0.00 | 95 | 1012.2 |
| 20260905052909 | 75 | 58 | 0.0 | 0.0 | 0.00 | 0.00 | 0.00 | 95 | 1012.2 |
| 20260905052408 | 75 | 58 | 0.0 | 0.0 | 0.00 | 0.00 | 0.00 | 95 | 1012.2 |
| 20260905051907 | 75 | 58 | 0.0 | 0.0 | 0.00 | 0.00 | 0.00 | 95 | 1012.2 |
| 20260905051406 | 75 | 58 | 0.0 | 0.0 | 0.00 | 0.00 | 0.00 | 95 | 1012.2 |
| 20260905050905 | 75 | 58 | 0.0 | 0.0 | 0.00 | 0.00 | 0.00 | 95 | 1012.2 |
| 20260905050404 | 75 | 58 | 0.0 | 0.0 | 0.00 | 0.00 | 0.00 | 95 | 1012.2 |
| 20260905045903 | 75 | 58 | 0.0 | 0.0 | 0.00 | 0.00 | 0.00 | 95 | 1011.9 |
| 20260905045331 | 75 | 58 | 0.0 | 0.0 | 0.00 | 0.00 | 0.00 | 95 | 1012.2 |
| 20260905044830 | 75 | 58 | 0.0 | 0.0 | 0.00 | 0.00 | 0.00 | 95 | 1012.2 |
| 20260905044329 | 75 | 58 | 0.0 | 0.0 | 0.00 | 0.00 | 0.00 | 95 | 1012.2 |
| 20260905043828 | 75 | 58 | 0.0 | 0.0 | 0.00 | 0.00 | 0.00 | 95 | 1012.2 |
| 20260905043255 | 75 | 58 | 0.0 | 0.0 | 0.00 | 0.00 | 0.00 | 95 | 1012.2 |
| 20260905042754 | 75 | 58 | 0.0 | 0.0 | 0.00 | 0.00 | 0.00 | 94 | 1012.2 |
| 20260905042253 | 75 | 58 | 0.0 | 0.0 | 0.00 | 0.00 | 0.00 | 94 | 1012.2 |
| 20260905041752 | 75 | 58 | 0.0 | 0.0 | 0.00 | 0.00 | 0.00 | 94 | 1012.2 |
| 20260905041250 | 75 | 58 | 0.0 | 0.0 | 0.00 | 0.00 | 0.00 | 94 | 1012.2 |
| 20260905040748 | 75 | 58 | 0.0 | 0.0 | 0.00 | 0.00 | 0.00 | 94 | 1012.2 |
| 20260905040247 | 76 | 58 | 0.0 | 0.0 | 0.00 | 0.00 | 0.00 | 94 | 1012.2 |
| 20260905035746 | 76 | 58 | 0.0 | 0.0 | 0.00 | 0.00 | 0.00 | 94 | 1012.2 |
| 20260905035245 | 76 | 58 | 0.0 | 0.0 | 0.00 | 0.00 | 0.00 | 94 | 1012.2 |
| 20260905034744 | 76 | 58 | 0.0 | 0.0 | 0.00 | 0.00 | 0.00 | 94 | 1012.2 |
| 20260905034243 | 76 | 58 | 0.0 | 0.0 | 0.00 | 0.00 | 0.00 | 94 | 1011.9 |
| 20260905033741 | 76 | 58 | 0.0 | 0.0 | 0.00 | 0.00 | 0.00 | 94 | 1012.2 |
| 20260905033240 | 76 | 58 | 0.0 | 0.0 | 0.00 | 0.00 | 0.00 | 94 | 1012.2 |
| 20260905032738 | 76 | 58 | 0.0 | 0.0 | 0.00 | 0.00 | 0.00 | 94 | 1012.2 |
| 20260905032237 | 76 | 58 | 0.0 | 0.0 | 0.00 | 0.00 | 0.00 | 94 | 1012.5 |
| 20260905031736 | 76 | 58 | 0.0 | 0.0 | 0.00 | 0.00 | 0.00 | 94 | 1012.5 |
| 20260905031234 | 76 | 58 | 0.0 | 0.0 | 0.00 | 0.00 | 0.00 | 94 | 1012.5 |
| 20260905030733 | 76 | 58 | 0.0 | 0.0 | 0.00 | 0.00 | 0.00 | 94 | 1012.5 |
| 20260905030230 | 76 | 58 | 0.0 | 0.0 | 0.00 | 0.00 | 0.00 | 94 | 1012.5 |
| 20260905025729 | 76 | 58 | 0.0 | 0.0 | 0.00 | 0.00 | 0.00 | 94 | 1012.5 |
| 20260905025227 | 76 | 58 | 0.0 | 0.0 | 0.00 | 0.00 | 0.00 | 94 | 1012.5 |
| 20260905024726 | 76 | 58 | 0.0 | 0.0 | 0.00 | 0.00 | 0.00 | 93 | 1012.9 |
| 20260905024225 | 76 | 58 | 0.0 | 0.0 | 0.00 | 0.00 | 0.00 | 93 | 1012.5 |
| 20260905023652 | 77 | 58 | 0.0 | 0.0 | 0.00 | 0.00 | 0.00 | 93 | 1012.5 |
| 20260905023151 | 77 | 58 | 0.0 | 0.0 | 0.00 | 0.00 | 0.00 | 92 | 1012.5 |
| 20260905022649 | 77 | 58 | 0.0 | 0.0 | 0.00 | 0.00 | 0.00 | 92 | 1012.9 |
| 20260905022148 | 77 | 58 | 0.0 | 0.0 | 0.00 | 0.00 | 0.00 | 92 | 1012.9 |
| 20260905021647 | 77 | 58 | 0.0 | 0.0 | 0.00 | 0.00 | 0.00 | 91 | 1012.9 |
| 20260905021146 | 77 | 58 | 0.0 | 0.0 | 0.00 | 0.00 | 0.00 | 91 | 1012.9 |
| 20260905020644 | 77 | 56 | 0.0 | 0.0 | 0.00 | 0.00 | 0.00 | 91 | 1012.9 |
| 20260905020112 | 77 | 56 | 0.0 | 0.0 | 0.00 | 0.00 | 0.00 | 91 | 1012.9 |
| 20260905015609 | 77 | 56 | 0.0 | 0.0 | 0.00 | 0.00 | 0.00 | 92 | 1012.9 |
| 20260905015108 | 77 | 56 | 0.0 | 0.0 | 0.00 | 0.00 | 0.00 | 92 | 1012.9 |
| 20260905014607 | 77 | 56 | 0.0 | 0.0 | 0.00 | 0.00 | 0.00 | 92 | 1012.9 |
| 20260905014106 | 77 | 57 | 0.0 | 0.0 | 0.00 | 0.00 | 0.00 | 91 | 1012.9 |
| 20260905013605 | 77 | 57 | 0.0 | 0.0 | 0.00 | 0.00 | 0.00 | 92 | 1012.5 |
| 20260905013104 | 77 | 27 | 0.0 | 0.0 | 0.00 | 0.00 | 0.00 | 92 | 1012.5 |
| 20260905012602 | 78 | 27 | 0.0 | 0.0 | 0.00 | 0.00 | 0.00 | 91 | 1012.5 |
| 20260905012101 | 78 | 27 | 0.0 | 0.0 | 0.00 | 0.00 | 0.00 | 91 | 1012.5 |
| 20260905011559 | 78 | 27 | 0.0 | 0.0 | 0.00 | 0.00 | 0.00 | 91 | 1012.5 |
| 20260905011058 | 78 | 27 | 0.0 | 0.0 | 0.00 | 0.00 | 0.00 | 90 | 1012.5 |
| 20260905010557 | 78 | 25 | 0.0 | 0.0 | 0.00 | 0.00 | 0.00 | 90 | 1012.5 |
| 20260905010055 | 79 | 25 | 0.0 | 0.0 | 0.00 | 0.00 | 0.00 | 89 | 1012.5 |
| 20260905005522 | 79 | 26 | 0.0 | 0.0 | 0.00 | 0.00 | 0.00 | 89 | 1012.5 |
| 20260905005021 | 79 | 26 | 0.0 | 0.0 | 0.00 | 0.00 | 0.00 | 89 | 1012.5 |
| 20260905004521 | 80 | 25 | 0.0 | 0.0 | 0.00 | 0.00 | 0.00 | 89 | 1012.5 |